sensor_id;sensor_type;location;lat;lon;timestamp;temperature;humidity
10314;DHT22;5202;49.138;10.090;2023-05-14T00:02:03;10.70;99.90
10314;DHT22;5202;49.138;10.090;2023-05-14T00:04:32;10.70;99.90
10314;DHT22;5202;49.138;10.090;2023-05-14T00:07:03;10.60;99.90
10314;DHT22;5202;49.138;10.090;2023-05-14T00:09:31;10.60;99.90
10314;DHT22;5202;49.138;10.090;2023-05-14T00:12:01;10.60;99.90
10314;DHT22;5202;49.138;10.090;2023-05-14T00:14:30;10.60;99.90
10314;DHT22;5202;49.138;10.090;2023-05-14T00:16:58;10.60;99.90
10314;DHT22;5202;49.138;10.090;2023-05-14T00:19:27;10.60;99.90
10314;DHT22;5202;49.138;10.090;2023-05-14T00:21:55;10.50;99.90
10314;DHT22;5202;49.138;10.090;2023-05-14T00:24:25;10.50;99.90
10314;DHT22;5202;49.138;10.090;2023-05-14T00:26:53;10.40;99.90
10314;DHT22;5202;49.138;10.090;2023-05-14T00:29:21;10.40;99.90
10314;DHT22;5202;49.138;10.090;2023-05-14T00:31:50;10.30;99.90
10314;DHT22;5202;49.138;10.090;2023-05-14T00:34:28;10.30;99.90
10314;DHT22;5202;49.138;10.090;2023-05-14T00:36:57;10.20;99.90
10314;DHT22;5202;49.138;10.090;2023-05-14T00:39:26;10.20;99.90
10314;DHT22;5202;49.138;10.090;2023-05-14T00:41:55;10.20;99.90
10314;DHT22;5202;49.138;10.090;2023-05-14T00:44:23;10.10;99.90
10314;DHT22;5202;49.138;10.090;2023-05-14T00:46:51;10.10;99.90
10314;DHT22;5202;49.138;10.090;2023-05-14T00:49:20;10.00;99.90
10314;DHT22;5202;49.138;10.090;2023-05-14T00:51:48;9.90;99.90
10314;DHT22;5202;49.138;10.090;2023-05-14T00:54:17;9.90;99.90
10314;DHT22;5202;49.138;10.090;2023-05-14T00:56:48;9.90;99.90
10314;DHT22;5202;49.138;10.090;2023-05-14T00:59:17;9.70;99.90
10314;DHT22;5202;49.138;10.090;2023-05-14T01:01:46;9.70;99.90
10314;DHT22;5202;49.138;10.090;2023-05-14T01:04:14;9.70;99.90
10314;DHT22;5202;49.138;10.090;2023-05-14T01:06:49;9.60;99.90
10314;DHT22;5202;49.138;10.090;2023-05-14T01:09:31;9.60;99.90
10314;DHT22;5202;49.138;10.090;2023-05-14T01:12:10;9.60;99.90
10314;DHT22;5202;49.138;10.090;2023-05-14T01:14:48;9.60;99.90
10314;DHT22;5202;49.138;10.090;2023-05-14T01:17:21;9.60;99.90
10314;DHT22;5202;49.138;10.090;2023-05-14T01:19:54;9.50;99.90
10314;DHT22;5202;49.138;10.090;2023-05-14T01:22:24;9.40;99.90
10314;DHT22;5202;49.138;10.090;2023-05-14T01:24:53;9.30;99.90
10314;DHT22;5202;49.138;10.090;2023-05-14T01:27:24;9.20;99.90
10314;DHT22;5202;49.138;10.090;2023-05-14T01:30:08;9.20;99.90
10314;DHT22;5202;49.138;10.090;2023-05-14T01:32:44;9.20;99.90
10314;DHT22;5202;49.138;10.090;2023-05-14T01:35:16;9.20;99.90
10314;DHT22;5202;49.138;10.090;2023-05-14T01:37:46;9.10;99.90
10314;DHT22;5202;49.138;10.090;2023-05-14T01:40:16;9.10;99.90
10314;DHT22;5202;49.138;10.090;2023-05-14T01:42:44;9.10;99.90
10314;DHT22;5202;49.138;10.090;2023-05-14T01:45:13;9.10;99.90
10314;DHT22;5202;49.138;10.090;2023-05-14T01:47:42;9.00;99.90
10314;DHT22;5202;49.138;10.090;2023-05-14T01:50:10;9.00;99.90
10314;DHT22;5202;49.138;10.090;2023-05-14T01:52:38;9.00;99.90
10314;DHT22;5202;49.138;10.090;2023-05-14T01:55:08;9.00;99.90
10314;DHT22;5202;49.138;10.090;2023-05-14T01:57:37;9.00;99.90
10314;DHT22;5202;49.138;10.090;2023-05-14T02:00:06;9.00;99.90
10314;DHT22;5202;49.138;10.090;2023-05-14T02:02:41;9.00;99.90
10314;DHT22;5202;49.138;10.090;2023-05-14T02:05:11;9.10;99.90
10314;DHT22;5202;49.138;10.090;2023-05-14T02:07:50;9.10;99.90
10314;DHT22;5202;49.138;10.090;2023-05-14T02:10:19;8.80;99.90
10314;DHT22;5202;49.138;10.090;2023-05-14T02:12:48;9.00;99.90
10314;DHT22;5202;49.138;10.090;2023-05-14T02:15:17;8.90;99.90
10314;DHT22;5202;49.138;10.090;2023-05-14T02:17:46;8.80;99.90
10314;DHT22;5202;49.138;10.090;2023-05-14T02:20:14;8.80;99.90
10314;DHT22;5202;49.138;10.090;2023-05-14T02:22:43;8.80;99.90
10314;DHT22;5202;49.138;10.090;2023-05-14T02:25:12;8.80;99.90
10314;DHT22;5202;49.138;10.090;2023-05-14T02:27:42;8.80;99.90
10314;DHT22;5202;49.138;10.090;2023-05-14T02:30:11;8.80;99.90
10314;DHT22;5202;49.138;10.090;2023-05-14T02:32:39;8.80;99.90
10314;DHT22;5202;49.138;10.090;2023-05-14T02:35:08;8.90;99.90
10314;DHT22;5202;49.138;10.090;2023-05-14T02:37:37;8.80;99.90
10314;DHT22;5202;49.138;10.090;2023-05-14T02:40:06;8.80;99.90
10314;DHT22;5202;49.138;10.090;2023-05-14T02:42:35;8.90;99.90
10314;DHT22;5202;49.138;10.090;2023-05-14T02:45:06;8.90;99.90
10314;DHT22;5202;49.138;10.090;2023-05-14T02:47:35;8.90;99.90
10314;DHT22;5202;49.138;10.090;2023-05-14T02:50:05;8.90;99.90
10314;DHT22;5202;49.138;10.090;2023-05-14T02:52:34;8.90;99.90
10314;DHT22;5202;49.138;10.090;2023-05-14T02:55:02;8.90;99.90
10314;DHT22;5202;49.138;10.090;2023-05-14T02:57:31;8.80;99.90
10314;DHT22;5202;49.138;10.090;2023-05-14T02:59:59;8.80;99.90
10314;DHT22;5202;49.138;10.090;2023-05-14T03:02:30;8.80;99.90
10314;DHT22;5202;49.138;10.090;2023-05-14T03:04:58;8.90;99.90
10314;DHT22;5202;49.138;10.090;2023-05-14T03:07:27;8.90;99.90
10314;DHT22;5202;49.138;10.090;2023-05-14T03:09:55;8.90;99.90
10314;DHT22;5202;49.138;10.090;2023-05-14T03:12:26;9.00;99.90
10314;DHT22;5202;49.138;10.090;2023-05-14T03:14:56;9.00;99.90
10314;DHT22;5202;49.138;10.090;2023-05-14T03:17:24;9.00;99.90
10314;DHT22;5202;49.138;10.090;2023-05-14T03:19:54;9.10;99.90
10314;DHT22;5202;49.138;10.090;2023-05-14T03:22:22;9.10;99.90
10314;DHT22;5202;49.138;10.090;2023-05-14T03:24:51;9.10;99.90
10314;DHT22;5202;49.138;10.090;2023-05-14T03:27:19;9.20;99.90
10314;DHT22;5202;49.138;10.090;2023-05-14T03:29:47;9.20;99.90
10314;DHT22;5202;49.138;10.090;2023-05-14T03:32:16;9.20;99.90
10314;DHT22;5202;49.138;10.090;2023-05-14T03:34:45;9.20;99.90
10314;DHT22;5202;49.138;10.090;2023-05-14T03:37:15;9.30;99.90
10314;DHT22;5202;49.138;10.090;2023-05-14T03:39:43;9.30;99.90
10314;DHT22;5202;49.138;10.090;2023-05-14T03:42:12;9.40;99.90
10314;DHT22;5202;49.138;10.090;2023-05-14T03:44:40;9.40;99.90
10314;DHT22;5202;49.138;10.090;2023-05-14T03:47:08;9.40;99.90
10314;DHT22;5202;49.138;10.090;2023-05-14T03:49:37;9.30;99.90
10314;DHT22;5202;49.138;10.090;2023-05-14T03:52:08;9.30;99.90
10314;DHT22;5202;49.138;10.090;2023-05-14T03:54:38;9.30;99.90
10314;DHT22;5202;49.138;10.090;2023-05-14T03:57:07;9.40;99.90
10314;DHT22;5202;49.138;10.090;2023-05-14T03:59:35;9.40;99.90
10314;DHT22;5202;49.138;10.090;2023-05-14T04:02:03;9.40;99.90
10314;DHT22;5202;49.138;10.090;2023-05-14T04:04:32;9.40;99.90
10314;DHT22;5202;49.138;10.090;2023-05-14T04:07:05;9.40;99.90
10314;DHT22;5202;49.138;10.090;2023-05-14T04:09:34;9.40;99.90
10314;DHT22;5202;49.138;10.090;2023-05-14T04:12:05;9.40;99.90
10314;DHT22;5202;49.138;10.090;2023-05-14T04:14:34;9.50;99.90
10314;DHT22;5202;49.138;10.090;2023-05-14T04:17:02;9.50;99.90
10314;DHT22;5202;49.138;10.090;2023-05-14T04:19:31;9.50;99.90
10314;DHT22;5202;49.138;10.090;2023-05-14T04:21:59;9.50;99.90
10314;DHT22;5202;49.138;10.090;2023-05-14T04:24:27;9.50;99.90
10314;DHT22;5202;49.138;10.090;2023-05-14T04:26:58;9.40;99.90
10314;DHT22;5202;49.138;10.090;2023-05-14T04:29:30;9.40;99.90
10314;DHT22;5202;49.138;10.090;2023-05-14T04:32:02;9.50;99.90
10314;DHT22;5202;49.138;10.090;2023-05-14T04:34:32;9.60;99.90
10314;DHT22;5202;49.138;10.090;2023-05-14T04:37:00;9.60;99.90
10314;DHT22;5202;49.138;10.090;2023-05-14T04:39:29;9.60;99.90
10314;DHT22;5202;49.138;10.090;2023-05-14T04:41:58;9.70;99.90
10314;DHT22;5202;49.138;10.090;2023-05-14T04:44:26;9.70;99.90
10314;DHT22;5202;49.138;10.090;2023-05-14T04:46:56;9.70;99.90
10314;DHT22;5202;49.138;10.090;2023-05-14T04:49:24;9.70;99.90
10314;DHT22;5202;49.138;10.090;2023-05-14T04:51:52;9.50;99.90
10314;DHT22;5202;49.138;10.090;2023-05-14T04:54:21;9.40;99.90
10314;DHT22;5202;49.138;10.090;2023-05-14T04:56:49;9.40;99.90
10314;DHT22;5202;49.138;10.090;2023-05-14T04:59:17;9.40;99.90
10314;DHT22;5202;49.138;10.090;2023-05-14T05:01:46;9.40;99.90
10314;DHT22;5202;49.138;10.090;2023-05-14T05:04:15;9.50;99.90
10314;DHT22;5202;49.138;10.090;2023-05-14T05:06:44;9.50;99.90
10314;DHT22;5202;49.138;10.090;2023-05-14T05:09:13;9.50;99.90
10314;DHT22;5202;49.138;10.090;2023-05-14T05:11:42;9.60;99.90
10314;DHT22;5202;49.138;10.090;2023-05-14T05:14:10;9.60;99.90
10314;DHT22;5202;49.138;10.090;2023-05-14T05:16:38;9.70;99.90
10314;DHT22;5202;49.138;10.090;2023-05-14T05:19:06;9.70;99.90
10314;DHT22;5202;49.138;10.090;2023-05-14T05:21:37;9.80;99.90
10314;DHT22;5202;49.138;10.090;2023-05-14T05:24:06;9.80;99.90
10314;DHT22;5202;49.138;10.090;2023-05-14T05:26:35;9.80;99.90
10314;DHT22;5202;49.138;10.090;2023-05-14T05:29:03;9.90;99.90
10314;DHT22;5202;49.138;10.090;2023-05-14T05:31:32;9.90;99.90
10314;DHT22;5202;49.138;10.090;2023-05-14T05:34:03;10.00;99.90
10314;DHT22;5202;49.138;10.090;2023-05-14T05:36:31;10.10;99.90
10314;DHT22;5202;49.138;10.090;2023-05-14T05:39:01;10.20;99.90
10314;DHT22;5202;49.138;10.090;2023-05-14T05:41:29;10.20;99.90
10314;DHT22;5202;49.138;10.090;2023-05-14T05:43:57;10.30;99.90
10314;DHT22;5202;49.138;10.090;2023-05-14T05:46:26;10.40;99.90
10314;DHT22;5202;49.138;10.090;2023-05-14T05:48:54;10.50;99.90
10314;DHT22;5202;49.138;10.090;2023-05-14T05:51:23;10.60;99.90
10314;DHT22;5202;49.138;10.090;2023-05-14T05:53:51;10.60;99.90
10314;DHT22;5202;49.138;10.090;2023-05-14T05:56:20;10.80;99.90
10314;DHT22;5202;49.138;10.090;2023-05-14T05:58:49;10.70;99.90
10314;DHT22;5202;49.138;10.090;2023-05-14T06:01:17;10.80;99.90
10314;DHT22;5202;49.138;10.090;2023-05-14T06:03:45;10.80;99.90
10314;DHT22;5202;49.138;10.090;2023-05-14T06:06:14;10.80;99.90
10314;DHT22;5202;49.138;10.090;2023-05-14T06:08:42;10.90;99.90
10314;DHT22;5202;49.138;10.090;2023-05-14T06:11:11;11.00;99.90
10314;DHT22;5202;49.138;10.090;2023-05-14T06:13:40;11.10;99.90
10314;DHT22;5202;49.138;10.090;2023-05-14T06:16:09;11.30;99.90
10314;DHT22;5202;49.138;10.090;2023-05-14T06:18:37;11.40;99.90
10314;DHT22;5202;49.138;10.090;2023-05-14T06:21:05;11.60;99.90
10314;DHT22;5202;49.138;10.090;2023-05-14T06:23:33;11.70;99.90
10314;DHT22;5202;49.138;10.090;2023-05-14T06:26:02;11.80;99.90
10314;DHT22;5202;49.138;10.090;2023-05-14T06:28:30;11.90;99.90
10314;DHT22;5202;49.138;10.090;2023-05-14T06:30:59;11.90;99.90
10314;DHT22;5202;49.138;10.090;2023-05-14T06:33:28;12.00;99.90
10314;DHT22;5202;49.138;10.090;2023-05-14T06:35:58;12.00;99.90
10314;DHT22;5202;49.138;10.090;2023-05-14T06:38:26;12.00;99.90
10314;DHT22;5202;49.138;10.090;2023-05-14T06:40:55;12.10;99.90
10314;DHT22;5202;49.138;10.090;2023-05-14T06:43:23;12.10;99.90
10314;DHT22;5202;49.138;10.090;2023-05-14T06:45:51;12.20;99.90
10314;DHT22;5202;49.138;10.090;2023-05-14T06:48:21;12.30;99.90
10314;DHT22;5202;49.138;10.090;2023-05-14T06:50:50;12.40;99.90
10314;DHT22;5202;49.138;10.090;2023-05-14T06:53:18;12.50;99.90
10314;DHT22;5202;49.138;10.090;2023-05-14T06:55:46;12.70;99.90
10314;DHT22;5202;49.138;10.090;2023-05-14T06:58:15;12.80;99.90
10314;DHT22;5202;49.138;10.090;2023-05-14T07:00:43;13.00;99.90
10314;DHT22;5202;49.138;10.090;2023-05-14T07:03:11;13.10;99.90
10314;DHT22;5202;49.138;10.090;2023-05-14T07:05:41;13.20;99.90
10314;DHT22;5202;49.138;10.090;2023-05-14T07:08:11;13.40;99.90
10314;DHT22;5202;49.138;10.090;2023-05-14T07:10:40;13.50;99.90
10314;DHT22;5202;49.138;10.090;2023-05-14T07:13:08;13.80;99.90
10314;DHT22;5202;49.138;10.090;2023-05-14T07:15:36;13.90;99.90
10314;DHT22;5202;49.138;10.090;2023-05-14T07:18:04;14.10;99.90
10314;DHT22;5202;49.138;10.090;2023-05-14T07:20:33;14.30;99.90
10314;DHT22;5202;49.138;10.090;2023-05-14T07:23:02;14.50;99.90
10314;DHT22;5202;49.138;10.090;2023-05-14T07:25:30;14.70;99.90
10314;DHT22;5202;49.138;10.090;2023-05-14T07:27:59;14.80;99.90
10314;DHT22;5202;49.138;10.090;2023-05-14T07:30:27;14.90;99.90
10314;DHT22;5202;49.138;10.090;2023-05-14T07:32:56;15.00;99.90
10314;DHT22;5202;49.138;10.090;2023-05-14T07:35:24;15.10;99.90
10314;DHT22;5202;49.138;10.090;2023-05-14T07:37:52;15.20;99.90
10314;DHT22;5202;49.138;10.090;2023-05-14T07:40:22;15.40;99.90
10314;DHT22;5202;49.138;10.090;2023-05-14T07:42:51;15.50;99.90
10314;DHT22;5202;49.138;10.090;2023-05-14T07:45:19;15.50;99.90
10314;DHT22;5202;49.138;10.090;2023-05-14T07:47:47;15.60;99.90
10314;DHT22;5202;49.138;10.090;2023-05-14T07:50:18;15.70;99.90
10314;DHT22;5202;49.138;10.090;2023-05-14T07:52:46;15.70;99.90
10314;DHT22;5202;49.138;10.090;2023-05-14T07:55:15;15.60;99.90
10314;DHT22;5202;49.138;10.090;2023-05-14T07:57:45;15.50;99.90
10314;DHT22;5202;49.138;10.090;2023-05-14T08:00:14;15.30;99.90
10314;DHT22;5202;49.138;10.090;2023-05-14T08:02:43;15.10;99.90
10314;DHT22;5202;49.138;10.090;2023-05-14T08:05:11;15.10;99.90
10314;DHT22;5202;49.138;10.090;2023-05-14T08:07:39;15.20;99.90
10314;DHT22;5202;49.138;10.090;2023-05-14T08:10:08;15.30;99.90
10314;DHT22;5202;49.138;10.090;2023-05-14T08:12:37;15.30;99.90
10314;DHT22;5202;49.138;10.090;2023-05-14T08:15:08;15.40;99.90
10314;DHT22;5202;49.138;10.090;2023-05-14T08:17:37;15.50;99.90
10314;DHT22;5202;49.138;10.090;2023-05-14T08:20:06;15.60;99.90
10314;DHT22;5202;49.138;10.090;2023-05-14T08:22:37;15.50;99.90
10314;DHT22;5202;49.138;10.090;2023-05-14T08:25:06;15.70;99.90
10314;DHT22;5202;49.138;10.090;2023-05-14T08:27:35;15.80;99.90
10314;DHT22;5202;49.138;10.090;2023-05-14T08:30:04;15.80;99.90
10314;DHT22;5202;49.138;10.090;2023-05-14T08:32:34;15.80;99.90
10314;DHT22;5202;49.138;10.090;2023-05-14T08:35:05;15.90;99.90
10314;DHT22;5202;49.138;10.090;2023-05-14T08:37:34;15.90;99.90
10314;DHT22;5202;49.138;10.090;2023-05-14T08:40:02;16.00;99.90
10314;DHT22;5202;49.138;10.090;2023-05-14T08:42:31;16.10;99.90
10314;DHT22;5202;49.138;10.090;2023-05-14T08:45:02;16.10;99.90
10314;DHT22;5202;49.138;10.090;2023-05-14T08:47:31;16.20;99.90
10314;DHT22;5202;49.138;10.090;2023-05-14T08:50:03;16.20;99.90
10314;DHT22;5202;49.138;10.090;2023-05-14T08:52:33;16.20;99.00
10314;DHT22;5202;49.138;10.090;2023-05-14T08:55:03;16.20;99.70
10314;DHT22;5202;49.138;10.090;2023-05-14T08:57:33;16.10;99.70
10314;DHT22;5202;49.138;10.090;2023-05-14T09:00:03;16.00;99.40
10314;DHT22;5202;49.138;10.090;2023-05-14T09:02:36;16.00;99.90
10314;DHT22;5202;49.138;10.090;2023-05-14T09:05:05;16.10;99.90
10314;DHT22;5202;49.138;10.090;2023-05-14T09:07:35;16.00;99.80
10314;DHT22;5202;49.138;10.090;2023-05-14T09:10:04;15.90;99.90
10314;DHT22;5202;49.138;10.090;2023-05-14T09:12:34;15.90;99.90
10314;DHT22;5202;49.138;10.090;2023-05-14T09:15:03;15.90;99.90
10314;DHT22;5202;49.138;10.090;2023-05-14T09:17:34;15.90;99.90
10314;DHT22;5202;49.138;10.090;2023-05-14T09:20:04;15.90;99.90
10314;DHT22;5202;49.138;10.090;2023-05-14T09:22:34;15.90;99.90
10314;DHT22;5202;49.138;10.090;2023-05-14T09:25:03;15.80;99.90
10314;DHT22;5202;49.138;10.090;2023-05-14T09:27:33;15.80;99.90
10314;DHT22;5202;49.138;10.090;2023-05-14T09:30:06;15.80;99.90
10314;DHT22;5202;49.138;10.090;2023-05-14T09:32:39;15.80;99.50
10314;DHT22;5202;49.138;10.090;2023-05-14T09:35:15;15.70;99.90
10314;DHT22;5202;49.138;10.090;2023-05-14T09:37:45;15.70;99.90
10314;DHT22;5202;49.138;10.090;2023-05-14T09:40:15;15.70;99.90
10314;DHT22;5202;49.138;10.090;2023-05-14T09:42:46;15.70;99.50
10314;DHT22;5202;49.138;10.090;2023-05-14T09:45:15;15.70;99.90
10314;DHT22;5202;49.138;10.090;2023-05-14T09:47:45;15.70;99.90
10314;DHT22;5202;49.138;10.090;2023-05-14T09:50:14;15.80;99.90
10314;DHT22;5202;49.138;10.090;2023-05-14T09:52:42;15.80;99.90
10314;DHT22;5202;49.138;10.090;2023-05-14T09:55:10;15.90;99.90
10314;DHT22;5202;49.138;10.090;2023-05-14T09:57:38;15.90;99.90
10314;DHT22;5202;49.138;10.090;2023-05-14T10:00:08;15.90;99.90
10314;DHT22;5202;49.138;10.090;2023-05-14T10:02:39;15.90;99.90
10314;DHT22;5202;49.138;10.090;2023-05-14T10:05:35;15.70;99.90
10314;DHT22;5202;49.138;10.090;2023-05-14T10:08:07;15.80;99.90
10314;DHT22;5202;49.138;10.090;2023-05-14T10:10:37;15.90;99.90
10314;DHT22;5202;49.138;10.090;2023-05-14T10:13:09;16.00;99.90
10314;DHT22;5202;49.138;10.090;2023-05-14T10:15:44;16.00;99.90
10314;DHT22;5202;49.138;10.090;2023-05-14T10:18:18;16.00;99.90
10314;DHT22;5202;49.138;10.090;2023-05-14T10:20:56;15.90;99.90
10314;DHT22;5202;49.138;10.090;2023-05-14T10:23:27;15.80;99.90
10314;DHT22;5202;49.138;10.090;2023-05-14T10:25:56;15.90;99.90
10314;DHT22;5202;49.138;10.090;2023-05-14T10:28:25;15.80;99.90
10314;DHT22;5202;49.138;10.090;2023-05-14T10:30:54;15.90;99.90
10314;DHT22;5202;49.138;10.090;2023-05-14T10:33:22;15.90;99.90
10314;DHT22;5202;49.138;10.090;2023-05-14T10:35:59;16.00;99.90
10314;DHT22;5202;49.138;10.090;2023-05-14T10:38:33;16.00;99.90
10314;DHT22;5202;49.138;10.090;2023-05-14T10:41:03;15.90;99.90
10314;DHT22;5202;49.138;10.090;2023-05-14T10:43:36;16.00;99.90
10314;DHT22;5202;49.138;10.090;2023-05-14T10:46:06;16.00;99.90
10314;DHT22;5202;49.138;10.090;2023-05-14T10:48:36;15.90;99.90
10314;DHT22;5202;49.138;10.090;2023-05-14T10:51:08;15.60;99.90
10314;DHT22;5202;49.138;10.090;2023-05-14T10:53:39;15.50;99.90
10314;DHT22;5202;49.138;10.090;2023-05-14T10:56:10;15.40;99.90
10314;DHT22;5202;49.138;10.090;2023-05-14T10:58:41;15.40;99.90
10314;DHT22;5202;49.138;10.090;2023-05-14T11:01:12;15.50;99.90
10314;DHT22;5202;49.138;10.090;2023-05-14T11:03:41;15.50;99.90
10314;DHT22;5202;49.138;10.090;2023-05-14T11:06:14;15.80;99.90
10314;DHT22;5202;49.138;10.090;2023-05-14T11:08:42;16.10;99.90
10314;DHT22;5202;49.138;10.090;2023-05-14T11:11:12;16.10;99.70
10314;DHT22;5202;49.138;10.090;2023-05-14T11:13:41;15.80;98.80
10314;DHT22;5202;49.138;10.090;2023-05-14T11:16:11;15.80;99.60
10314;DHT22;5202;49.138;10.090;2023-05-14T11:18:52;15.70;99.90
10314;DHT22;5202;49.138;10.090;2023-05-14T11:21:22;15.60;99.90
10314;DHT22;5202;49.138;10.090;2023-05-14T11:23:51;15.50;99.80
10314;DHT22;5202;49.138;10.090;2023-05-14T11:26:22;15.50;99.90
10314;DHT22;5202;49.138;10.090;2023-05-14T11:28:51;15.50;99.90
10314;DHT22;5202;49.138;10.090;2023-05-14T11:31:21;15.60;99.90
10314;DHT22;5202;49.138;10.090;2023-05-14T11:33:51;15.70;99.90
10314;DHT22;5202;49.138;10.090;2023-05-14T11:36:20;15.80;99.90
10314;DHT22;5202;49.138;10.090;2023-05-14T11:38:50;15.70;99.60
10314;DHT22;5202;49.138;10.090;2023-05-14T11:41:18;15.70;99.90
10314;DHT22;5202;49.138;10.090;2023-05-14T11:43:49;15.80;99.90
10314;DHT22;5202;49.138;10.090;2023-05-14T11:46:17;15.90;99.90
10314;DHT22;5202;49.138;10.090;2023-05-14T11:48:46;16.00;99.80
10314;DHT22;5202;49.138;10.090;2023-05-14T11:51:14;15.90;98.40
10314;DHT22;5202;49.138;10.090;2023-05-14T11:53:44;15.80;98.50
10314;DHT22;5202;49.138;10.090;2023-05-14T11:56:14;15.80;99.40
10314;DHT22;5202;49.138;10.090;2023-05-14T11:58:47;15.90;98.80
10314;DHT22;5202;49.138;10.090;2023-05-14T12:01:15;16.00;98.90
10314;DHT22;5202;49.138;10.090;2023-05-14T12:03:43;16.00;98.30
10314;DHT22;5202;49.138;10.090;2023-05-14T12:06:29;15.90;98.80
10314;DHT22;5202;49.138;10.090;2023-05-14T12:08:58;15.90;99.00
10314;DHT22;5202;49.138;10.090;2023-05-14T12:11:31;15.90;98.50
10314;DHT22;5202;49.138;10.090;2023-05-14T12:13:59;15.90;99.60
10314;DHT22;5202;49.138;10.090;2023-05-14T12:16:29;16.10;99.80
10314;DHT22;5202;49.138;10.090;2023-05-14T12:19:00;16.20;98.90
10314;DHT22;5202;49.138;10.090;2023-05-14T12:21:29;16.20;98.90
10314;DHT22;5202;49.138;10.090;2023-05-14T12:23:58;16.20;98.80
10314;DHT22;5202;49.138;10.090;2023-05-14T12:26:26;16.20;98.90
10314;DHT22;5202;49.138;10.090;2023-05-14T12:28:58;16.40;99.40
10314;DHT22;5202;49.138;10.090;2023-05-14T12:31:28;16.30;98.20
10314;DHT22;5202;49.138;10.090;2023-05-14T12:33:56;16.30;98.20
10314;DHT22;5202;49.138;10.090;2023-05-14T12:36:25;16.30;99.10
10314;DHT22;5202;49.138;10.090;2023-05-14T12:38:57;16.40;98.10
10314;DHT22;5202;49.138;10.090;2023-05-14T12:41:26;16.50;99.00
10314;DHT22;5202;49.138;10.090;2023-05-14T12:43:54;16.40;98.40
10314;DHT22;5202;49.138;10.090;2023-05-14T12:46:26;16.40;98.10
10314;DHT22;5202;49.138;10.090;2023-05-14T12:48:54;16.40;98.50
10314;DHT22;5202;49.138;10.090;2023-05-14T12:51:23;16.30;98.00
10314;DHT22;5202;49.138;10.090;2023-05-14T12:53:52;16.30;97.80
10314;DHT22;5202;49.138;10.090;2023-05-14T12:56:20;16.20;98.10
10314;DHT22;5202;49.138;10.090;2023-05-14T12:58:54;16.20;98.10
10314;DHT22;5202;49.138;10.090;2023-05-14T13:01:24;16.20;98.20
10314;DHT22;5202;49.138;10.090;2023-05-14T13:03:52;16.40;98.60
10314;DHT22;5202;49.138;10.090;2023-05-14T13:06:21;16.50;97.80
10314;DHT22;5202;49.138;10.090;2023-05-14T13:08:49;16.60;97.70
10314;DHT22;5202;49.138;10.090;2023-05-14T13:11:17;16.40;96.80
10314;DHT22;5202;49.138;10.090;2023-05-14T13:13:46;16.30;97.80
10314;DHT22;5202;49.138;10.090;2023-05-14T13:16:15;16.30;98.10
10314;DHT22;5202;49.138;10.090;2023-05-14T13:18:44;16.10;96.50
10314;DHT22;5202;49.138;10.090;2023-05-14T13:21:13;16.10;97.40
10314;DHT22;5202;49.138;10.090;2023-05-14T13:23:41;15.90;97.10
10314;DHT22;5202;49.138;10.090;2023-05-14T13:26:09;15.80;97.20
10314;DHT22;5202;49.138;10.090;2023-05-14T13:28:37;15.80;97.90
10314;DHT22;5202;49.138;10.090;2023-05-14T13:31:07;15.80;97.90
10314;DHT22;5202;49.138;10.090;2023-05-14T13:33:42;15.90;97.90
10314;DHT22;5202;49.138;10.090;2023-05-14T13:36:13;16.00;97.50
10314;DHT22;5202;49.138;10.090;2023-05-14T13:38:41;16.00;98.00
10314;DHT22;5202;49.138;10.090;2023-05-14T13:41:11;15.90;97.80
10314;DHT22;5202;49.138;10.090;2023-05-14T13:43:40;15.90;97.30
10314;DHT22;5202;49.138;10.090;2023-05-14T13:46:08;16.00;97.30
10314;DHT22;5202;49.138;10.090;2023-05-14T13:48:36;16.00;97.80
10314;DHT22;5202;49.138;10.090;2023-05-14T13:51:06;16.10;97.80
10314;DHT22;5202;49.138;10.090;2023-05-14T13:53:34;16.20;97.80
10314;DHT22;5202;49.138;10.090;2023-05-14T13:56:02;16.40;98.10
10314;DHT22;5202;49.138;10.090;2023-05-14T13:58:32;16.50;97.60
10314;DHT22;5202;49.138;10.090;2023-05-14T14:01:00;16.50;97.00
10314;DHT22;5202;49.138;10.090;2023-05-14T14:03:28;16.60;96.90
10314;DHT22;5202;49.138;10.090;2023-05-14T14:06:00;16.50;94.90
10314;DHT22;5202;49.138;10.090;2023-05-14T14:08:30;16.60;96.20
10314;DHT22;5202;49.138;10.090;2023-05-14T14:10:58;16.90;96.70
10314;DHT22;5202;49.138;10.090;2023-05-14T14:13:27;17.30;97.20
10314;DHT22;5202;49.138;10.090;2023-05-14T14:15:55;17.80;96.80
10314;DHT22;5202;49.138;10.090;2023-05-14T14:18:23;18.20;95.70
10314;DHT22;5202;49.138;10.090;2023-05-14T14:20:52;18.40;95.20
10314;DHT22;5202;49.138;10.090;2023-05-14T14:23:20;18.40;94.00
10314;DHT22;5202;49.138;10.090;2023-05-14T14:25:50;18.20;93.40
10314;DHT22;5202;49.138;10.090;2023-05-14T14:28:18;18.20;93.80
10314;DHT22;5202;49.138;10.090;2023-05-14T14:30:46;18.30;93.50
10314;DHT22;5202;49.138;10.090;2023-05-14T14:33:14;18.50;93.20
10314;DHT22;5202;49.138;10.090;2023-05-14T14:35:46;18.70;93.30
10314;DHT22;5202;49.138;10.090;2023-05-14T14:38:18;19.00;92.70
10314;DHT22;5202;49.138;10.090;2023-05-14T14:40:46;19.30;92.50
10314;DHT22;5202;49.138;10.090;2023-05-14T14:43:16;19.50;92.30
10314;DHT22;5202;49.138;10.090;2023-05-14T14:45:44;19.50;91.20
10314;DHT22;5202;49.138;10.090;2023-05-14T14:48:22;19.40;90.20
10314;DHT22;5202;49.138;10.090;2023-05-14T14:50:52;19.30;90.00
10314;DHT22;5202;49.138;10.090;2023-05-14T14:53:21;19.20;90.50
10314;DHT22;5202;49.138;10.090;2023-05-14T14:55:50;19.40;91.80
10314;DHT22;5202;49.138;10.090;2023-05-14T14:58:21;19.60;89.20
10314;DHT22;5202;49.138;10.090;2023-05-14T15:00:51;19.40;89.50
10314;DHT22;5202;49.138;10.090;2023-05-14T15:03:20;19.40;90.50
10314;DHT22;5202;49.138;10.090;2023-05-14T15:05:49;19.10;88.60
10314;DHT22;5202;49.138;10.090;2023-05-14T15:08:21;18.90;88.90
10314;DHT22;5202;49.138;10.090;2023-05-14T15:10:51;18.50;89.90
10314;DHT22;5202;49.138;10.090;2023-05-14T15:13:21;18.50;91.10
10314;DHT22;5202;49.138;10.090;2023-05-14T15:15:50;18.50;91.20
10314;DHT22;5202;49.138;10.090;2023-05-14T15:18:19;18.80;91.10
10314;DHT22;5202;49.138;10.090;2023-05-14T15:20:47;19.20;90.00
10314;DHT22;5202;49.138;10.090;2023-05-14T15:23:16;19.00;89.00
10314;DHT22;5202;49.138;10.090;2023-05-14T15:25:44;18.90;88.70
10314;DHT22;5202;49.138;10.090;2023-05-14T15:28:13;19.00;89.50
10314;DHT22;5202;49.138;10.090;2023-05-14T15:30:42;18.70;87.50
10314;DHT22;5202;49.138;10.090;2023-05-14T15:33:10;18.80;90.20
10314;DHT22;5202;49.138;10.090;2023-05-14T15:35:42;19.00;90.20
10314;DHT22;5202;49.138;10.090;2023-05-14T15:38:10;19.10;89.70
10314;DHT22;5202;49.138;10.090;2023-05-14T15:40:39;19.20;87.80
10314;DHT22;5202;49.138;10.090;2023-05-14T15:43:07;18.90;87.70
10314;DHT22;5202;49.138;10.090;2023-05-14T15:45:35;18.80;88.30
10314;DHT22;5202;49.138;10.090;2023-05-14T15:48:05;18.80;88.50
10314;DHT22;5202;49.138;10.090;2023-05-14T15:50:34;18.90;89.60